Archival Weather

Chicago O'Hare International

Chicago, Illinois (KORD)

Report from: Saturday, March 5, 2022 10:51 PM CST
Current time: Saturday, February 4, 2023 10:16 PM CST

Current weather
Weather history
Weather forecast

Temperature17.2°C (63.0°F)
Dew point12.8°C (55.0°F)
Winds 21 kts (10.8 m/s, 24.2 mph) South-Southwest (200°)
Wind gusts 38 kts (19.5 m/s, 43.7 mph)
Peak wind 41 kts (21.1 m/s, 47.2 mph) South-Southwest (200°) at 22:27
Visibility10 mi. (16.1 km)
Clouds Ceiling: Broken clouds 2,400 ft. (732 m)
Overcast 3,500 ft. (1,067 m)
Altimeter29.62 in.Hg (1003 mB)
Relative humidity75 %
Density altitude811 ft. (247 m)
Sea-level pressure100.3 kPa (1003 mB, 29.61 in.Hg)
Remarks System requires maintenance
Automated weather observing station with precipitation discriminator
Lightning observed
Distant southwest and west
Flight conditions Marginal Visual Meteorological Conditions
Raw dataKORD 060451Z 20021G38KT 10SM BKN024 OVC035 17/13 A2962 RMK AO2 PK WND 20041/0427 LTG DSNT SW AND W SLP028 T01720128 $
An unhandled exception has occurred. See browser dev tools for details. Reload 🗙